Time;durP1;ratioP1;P1;durP2;ratioP2;P2;SDS_P1;SDS_P2;PMS_P1;PMS_P2;Temp;Humidity;BMP_temperature;BMP_pressure;BME280_temperature;BME280_humidity;BME280_pressure;Samples;Min_cycle;Max_cycle;Signal;HPM_P1;HPM_P2
2022/05/14 00:00:48;;;;;;;0.50;0.40;;;21.90;57.50;;;;;;5091119;28;20071;-35
2022/05/14 00:03:14;;;;;;;2.67;0.45;;;21.90;57.60;;;;;;5085689;28;20021;-33
2022/05/14 00:06:02;;;;;;;0.30;0.30;;;21.90;57.60;;;;;;5081978;28;20037;-33
2022/05/14 00:08:28;;;;;;;1.15;0.43;;;21.90;57.60;;;;;;5061402;28;20033;-33
2022/05/14 00:13:39;;;;;;;0.25;0.25;;;21.90;57.80;;;;;;5056727;28;20650;-35
2022/05/14 00:16:05;;;;;;;0.70;0.40;;;22.00;57.90;;;;;;5043107;28;20037;-33
2022/05/14 00:18:32;;;;;;;0.30;0.30;;;22.00;57.90;;;;;;5060515;28;20488;-34
2022/05/14 00:20:59;;;;;;;1.58;0.38;;;22.00;57.90;;;;;;5060981;28;20067;-33
2022/05/14 00:23:25;;;;;;;;;;;22.00;57.90;;;;;;5060602;28;20059;-33
2022/05/14 00:25:51;;;;;;;0.28;0.20;;;22.00;57.90;;;;;;5055845;28;19963;-33
2022/05/14 00:28:18;;;;;;;0.30;0.30;;;22.00;57.90;;;;;;5060089;28;20029;-33
2022/05/14 00:30:44;;;;;;;0.60;0.47;;;22.00;57.80;;;;;;5059259;28;20357;-33
2022/05/14 00:33:11;;;;;;;1.20;0.40;;;22.00;57.60;;;;;;5064805;28;20064;-33
2022/05/14 00:35:37;;;;;;;0.50;0.40;;;22.00;57.50;;;;;;5058701;28;20131;-33
2022/05/14 00:38:03;;;;;;;1.40;0.40;;;22.00;57.40;;;;;;5060807;28;20097;-33
2022/05/14 00:40:32;;;;;;;0.30;0.30;;;22.00;57.40;;;;;;5060155;28;20585;-33
2022/05/14 00:42:59;;;;;;;0.45;0.30;;;22.10;57.40;;;;;;5060514;28;20288;-33
2022/05/14 00:45:25;;;;;;;0.65;0.40;;;22.10;57.40;;;;;;5061929;28;20037;-33
2022/05/14 00:47:53;;;;;;;2.40;0.43;;;22.00;57.40;;;;;;5093236;28;20031;-33
2022/05/14 00:50:34;;;;;;;0.40;0.40;;;22.00;57.40;;;;;;5090997;28;20376;-33
2022/05/14 00:53:12;;;;;;;0.25;0.25;;;22.10;57.40;;;;;;5081486;28;20068;-33
2022/05/14 00:55:38;;;;;;;0.65;0.40;;;22.10;57.40;;;;;;5074923;28;20044;-33
2022/05/14 00:58:05;;;;;;;0.73;0.43;;;22.10;57.40;;;;;;5109381;28;20021;-35
2022/05/14 01:00:32;;;;;;;0.30;0.30;;;22.10;57.40;;;;;;5081093;28;20068;-35
2022/05/14 01:02:58;;;;;;;0.63;0.40;;;22.10;57.40;;;;;;5082275;28;20021;-35
2022/05/14 01:05:24;;;;;;;0.40;0.30;;;22.10;57.40;;;;;;5071182;28;20105;-35
2022/05/14 01:07:51;;;;;;;0.80;0.65;;;22.10;57.30;;;;;;5086587;28;20127;-35
2022/05/14 01:10:18;;;;;;;3.08;0.80;;;22.20;57.10;;;;;;5095780;28;20039;-33
2022/05/14 01:12:50;;;;;;;;;;;22.20;56.80;;;;;;5081440;28;20039;-33
2022/05/14 01:15:19;;;;;;;2.25;0.70;;;22.20;56.90;;;;;;5078730;28;19904;-33
2022/05/14 01:17:45;;;;;;;1.10;0.80;;;22.10;56.90;;;;;;5082055;28;20096;-33
2022/05/14 01:20:19;;;;;;;2.88;0.70;;;22.10;56.80;;;;;;5074127;28;20059;-33
2022/05/14 01:23:07;;;;;;;1.00;0.60;;;22.10;56.70;;;;;;5082377;28;20027;-33
2022/05/14 01:28:18;;;;;;;2.40;0.60;;;22.10;56.70;;;;;;5073052;28;19919;-33
2022/05/14 01:30:47;;;;;;;1.33;0.75;;;22.10;56.70;;;;;;5082147;28;20043;-33
2022/05/14 01:33:13;;;;;;;0.98;0.70;;;22.10;56.70;;;;;;5080666;28;20024;-33
2022/05/14 01:35:40;;;;;;;2.90;0.60;;;22.10;56.70;;;;;;5081529;28;20035;-33
2022/05/14 01:38:06;;;;;;;1.73;0.73;;;22.10;56.70;;;;;;5083192;28;20024;-33
2022/05/14 01:40:33;;;;;;;1.65;0.60;;;22.10;56.70;;;;;;5077562;28;20040;-34
2022/05/14 01:42:59;;;;;;;1.98;0.70;;;22.10;56.70;;;;;;5080654;28;20027;-33
2022/05/14 01:45:28;;;;;;;0.98;0.63;;;22.10;56.70;;;;;;5080397;28;20060;-33
2022/05/14 01:47:54;;;;;;;1.17;0.60;;;22.10;56.80;;;;;;5084561;28;20032;-33
2022/05/14 01:50:21;;;;;;;0.75;0.60;;;22.10;56.80;;;;;;5079011;28;20037;-33
2022/05/14 01:52:47;;;;;;;1.02;0.50;;;22.20;56.90;;;;;;5079052;28;20029;-33
2022/05/14 01:55:13;;;;;;;2.30;0.60;;;22.10;57.00;;;;;;5077711;28;20036;-33
2022/05/14 01:57:39;;;;;;;1.88;0.80;;;22.20;57.10;;;;;;5080223;28;20032;-33
2022/05/14 02:00:07;;;;;;;1.15;0.50;;;22.20;57.10;;;;;;5073421;28;20040;-33
2022/05/14 02:02:33;;;;;;;2.78;0.70;;;22.20;57.10;;;;;;5082859;28;20025;-33
2022/05/14 02:04:59;;;;;;;1.20;0.60;;;22.20;57.10;;;;;;5077963;28;20119;-33
2022/05/14 02:07:26;;;;;;;0.80;0.60;;;22.20;57.10;;;;;;5081831;28;20433;-33
2022/05/14 02:09:52;;;;;;;1.05;0.50;;;22.20;57.10;;;;;;5082842;28;20029;-33
2022/05/14 02:12:18;;;;;;;1.15;0.60;;;22.20;57.10;;;;;;5085807;28;20021;-33
2022/05/14 02:14:45;;;;;;;3.15;0.80;;;22.20;57.20;;;;;;5082573;28;20050;-33
2022/05/14 02:17:12;;;;;;;1.20;0.50;;;22.20;57.10;;;;;;5089633;28;20032;-33
2022/05/14 02:19:39;;;;;;;0.70;0.57;;;22.20;57.10;;;;;;5079963;28;20067;-33
2022/05/14 02:22:05;;;;;;;0.83;0.50;;;22.20;57.10;;;;;;5085832;28;20056;-33
2022/05/14 02:24:35;;;;;;;0.75;0.47;;;22.20;57.10;;;;;;5084685;28;20032;-33
2022/05/14 02:27:01;;;;;;;0.65;0.50;;;22.20;57.20;;;;;;5083927;28;20085;-33
2022/05/14 02:29:27;;;;;;;1.63;0.82;;;22.20;57.20;;;;;;5087070;28;20039;-33
2022/05/14 02:31:54;;;;;;;0.90;0.60;;;22.20;57.20;;;;;;5083698;28;20031;-33
2022/05/14 02:34:20;;;;;;;0.88;0.50;;;22.20;57.20;;;;;;5075424;28;20024;-33
2022/05/14 02:36:46;;;;;;;1.70;0.60;;;22.20;57.20;;;;;;5086841;28;20040;-33
2022/05/14 02:39:12;;;;;;;0.90;0.50;;;22.20;57.20;;;;;;5083419;28;20575;-33
2022/05/14 02:41:38;;;;;;;0.75;0.50;;;22.20;57.20;;;;;;5071391;28;20048;-33
2022/05/14 02:44:04;;;;;;;0.70;0.55;;;22.20;57.20;;;;;;5084712;28;20029;-33
2022/05/14 02:46:30;;;;;;;1.27;0.60;;;22.20;57.30;;;;;;5085119;28;20028;-33
2022/05/14 02:48:57;;;;;;;0.80;0.40;;;22.20;57.20;;;;;;5081096;28;20078;-33
2022/05/14 02:51:23;;;;;;;0.68;0.60;;;22.20;57.20;;;;;;5084308;28;20485;-33
2022/05/14 02:53:49;;;;;;;0.60;0.60;;;22.20;57.20;;;;;;5082536;28;20031;-33
2022/05/14 02:56:15;;;;;;;1.25;0.63;;;22.20;57.20;;;;;;5076291;28;20059;-33
2022/05/14 03:01:26;;;;;;;2.10;0.60;;;22.20;57.20;;;;;;5082407;28;20036;-33
2022/05/14 03:03:52;;;;;;;0.43;0.40;;;22.20;57.20;;;;;;5079077;28;20032;-34
2022/05/14 03:06:18;;;;;;;3.85;0.60;;;22.20;57.20;;;;;;5080966;28;20020;-33
2022/05/14 03:08:44;;;;;;;1.13;0.57;;;22.20;57.20;;;;;;5076658;28;20039;-33
2022/05/14 03:11:11;;;;;;;1.75;0.60;;;22.20;57.20;;;;;;5084085;28;20021;-33
2022/05/14 03:13:37;;;;;;;2.75;0.52;;;22.20;57.20;;;;;;5081402;28;20607;-33
2022/05/14 03:16:03;;;;;;;0.57;0.47;;;22.20;57.20;;;;;;5081556;28;20033;-33
2022/05/14 03:18:29;;;;;;;3.20;0.73;;;22.20;57.20;;;;;;5084131;28;20098;-33
2022/05/14 03:20:55;;;;;;;0.80;0.52;;;22.20;57.20;;;;;;5083487;28;20108;-33
2022/05/14 03:23:21;;;;;;;0.57;0.50;;;22.20;57.20;;;;;;5084626;28;20032;-33
2022/05/14 03:25:48;;;;;;;0.63;0.50;;;22.20;57.10;;;;;;5074067;28;20067;-33
2022/05/14 03:28:14;;;;;;;0.98;0.50;;;22.20;57.10;;;;;;5072284;28;20024;-33
2022/05/14 03:30:40;;;;;;;1.50;0.60;;;22.20;57.10;;;;;;5077592;28;20054;-33
2022/05/14 03:33:06;;;;;;;0.63;0.40;;;22.20;57.10;;;;;;5084406;28;20017;-33
2022/05/14 03:35:32;;;;;;;0.98;0.50;;;22.20;57.10;;;;;;5078361;28;20048;-33
2022/05/14 03:37:58;;;;;;;1.50;0.52;;;22.20;57.10;;;;;;5079584;28;20029;-33
2022/05/14 03:40:24;;;;;;;1.77;0.50;;;22.20;57.30;;;;;;5084073;28;20036;-33
2022/05/14 03:42:50;;;;;;;0.60;0.40;;;22.20;57.10;;;;;;5079813;28;20087;-33
2022/05/14 03:45:16;;;;;;;0.55;0.47;;;22.20;57.10;;;;;;5081417;28;20400;-33
2022/05/14 03:47:42;;;;;;;0.82;0.50;;;22.20;57.20;;;;;;5081249;28;20090;-35
2022/05/14 03:50:09;;;;;;;0.90;0.60;;;22.20;57.20;;;;;;5080784;28;20028;-33
2022/05/14 03:52:35;;;;;;;0.73;0.50;;;22.20;57.20;;;;;;5077615;28;20021;-33
2022/05/14 03:55:01;;;;;;;0.40;0.40;;;22.20;57.20;;;;;;5074602;28;20044;-33
2022/05/14 03:57:27;;;;;;;0.75;0.60;;;22.20;57.20;;;;;;5092608;28;20028;-33
2022/05/14 03:59:53;;;;;;;0.77;0.60;;;22.20;57.80;;;;;;5080203;28;20021;-33
2022/05/14 04:02:21;;;;;;;1.33;0.60;;;22.20;57.30;;;;;;5079882;28;20021;-33
2022/05/14 04:04:47;;;;;;;0.95;0.60;;;22.20;57.30;;;;;;5076120;28;20020;-33
2022/05/14 04:07:14;;;;;;;1.05;0.47;;;22.20;57.30;;;;;;5084275;28;20034;-33
2022/05/14 04:09:40;;;;;;;1.20;0.50;;;22.20;57.30;;;;;;5070856;28;20047;-33
2022/05/14 04:12:06;;;;;;;0.63;0.47;;;22.20;57.30;;;;;;5075918;28;20020;-33
2022/05/14 04:14:32;;;;;;;0.45;0.40;;;22.20;57.40;;;;;;5080766;28;20093;-33
2022/05/14 04:16:59;;;;;;;0.45;0.43;;;22.20;57.40;;;;;;5077562;28;20032;-33
2022/05/14 04:19:25;;;;;;;0.80;0.50;;;22.20;57.40;;;;;;5079886;28;20059;-33
2022/05/14 04:21:52;;;;;;;0.40;0.40;;;22.20;57.40;;;;;;5078532;28;20048;-33
2022/05/14 04:24:18;;;;;;;1.00;0.55;;;22.20;57.40;;;;;;5080626;28;20029;-33
2022/05/14 04:26:44;;;;;;;3.00;0.68;;;22.20;57.40;;;;;;5076126;28;20032;-33
2022/05/14 04:29:10;;;;;;;0.77;0.45;;;22.20;57.40;;;;;;5074869;28;20023;-33
2022/05/14 04:31:36;;;;;;;0.73;0.50;;;22.20;57.50;;;;;;5083716;28;20128;-33
2022/05/14 04:34:02;;;;;;;1.53;0.67;;;22.20;57.50;;;;;;5076256;28;20028;-33
2022/05/14 04:36:29;;;;;;;0.52;0.52;;;22.20;57.50;;;;;;5078345;28;20044;-33
2022/05/14 04:38:55;;;;;;;1.25;0.68;;;22.20;57.50;;;;;;5079240;28;20021;-34
2022/05/14 04:41:21;;;;;;;1.33;0.60;;;22.20;57.40;;;;;;5082786;28;20619;-33
2022/05/14 04:43:47;;;;;;;0.75;0.55;;;22.10;57.40;;;;;;5075901;28;20035;-33
2022/05/14 04:46:13;;;;;;;1.17;0.60;;;22.10;57.40;;;;;;5077715;28;20084;-33
2022/05/14 04:48:39;;;;;;;0.52;0.50;;;22.10;57.40;;;;;;5075737;28;20028;-33
2022/05/14 04:51:05;;;;;;;1.48;0.68;;;22.10;57.40;;;;;;5079799;28;20714;-33
2022/05/14 04:53:32;;;;;;;0.57;0.50;;;22.10;57.40;;;;;;5078024;28;20036;-33
2022/05/14 04:55:58;;;;;;;0.65;0.40;;;22.10;57.40;;;;;;5073888;28;20025;-33
2022/05/14 04:58:24;;;;;;;0.90;0.60;;;22.10;57.40;;;;;;5075749;28;20550;-34
2022/05/14 05:00:50;;;;;;;0.80;0.50;;;22.10;57.40;;;;;;5078876;28;20145;-33
2022/05/14 05:03:19;;;;;;;1.65;0.80;;;22.10;57.40;;;;;;5079507;28;20025;-33
2022/05/14 05:06:03;;;;;;;1.08;0.60;;;22.10;57.50;;;;;;5079053;28;20057;-33
2022/05/14 05:08:31;;;;;;;1.67;0.45;;;22.10;57.50;;;;;;5062916;28;20025;-33
2022/05/14 05:10:57;;;;;;;;;;;22.10;57.40;;;;;;5068277;28;20024;-33
2022/05/14 05:13:25;;;;;;;0.75;0.60;;;22.10;57.50;;;;;;5111611;28;19985;-33
2022/05/14 05:15:52;;;;;;;0.65;0.60;;;22.10;57.40;;;;;;5078584;28;20029;-34
2022/05/14 05:18:18;;;;;;;4.77;0.60;;;22.10;57.50;;;;;;5073732;28;20017;-33
2022/05/14 05:20:46;;;;;;;1.42;0.70;;;22.10;57.60;;;;;;5073198;28;21084;-34
2022/05/14 05:23:13;;;;;;;0.90;0.75;;;22.10;57.60;;;;;;5070646;28;20032;-34
2022/05/14 05:25:39;;;;;;;;;;;22.10;57.80;;;;;;5075782;28;20028;-33
2022/05/14 05:28:05;;;;;;;0.77;0.52;;;22.10;57.70;;;;;;5068469;28;19908;-33
2022/05/14 05:30:31;;;;;;;3.65;0.60;;;22.10;57.80;;;;;;5080264;28;20035;-34
2022/05/14 05:32:57;;;;;;;5.05;0.47;;;22.00;57.70;;;;;;5075878;28;20024;-34
2022/05/14 05:35:24;;;;;;;0.90;0.70;;;22.10;57.80;;;;;;5077937;28;20051;-34
2022/05/14 05:37:50;;;;;;;0.52;0.38;;;22.00;57.70;;;;;;5077751;28;20029;-34
2022/05/14 05:40:16;;;;;;;3.22;0.60;;;22.00;57.70;;;;;;5074753;28;20047;-34
2022/05/14 05:42:43;;;;;;;1.07;0.60;;;22.00;57.70;;;;;;5080313;28;20066;-34
2022/05/14 05:45:10;;;;;;;0.82;0.50;;;22.10;57.70;;;;;;5077301;28;20055;-34
2022/05/14 05:47:36;;;;;;;3.15;0.60;;;22.00;57.70;;;;;;5080950;28;20039;-34
2022/05/14 05:50:03;;;;;;;2.92;0.60;;;22.00;57.70;;;;;;5076133;28;20033;-34
2022/05/14 05:52:31;;;;;;;0.85;0.60;;;22.00;57.70;;;;;;5077506;28;20021;-34
2022/05/14 05:57:43;;;;;;;1.08;0.50;;;22.00;57.60;;;;;;5073614;28;20060;-34
2022/05/14 06:00:15;;;;;;;1.20;0.50;;;22.00;57.60;;;;;;5072146;28;20062;-34
2022/05/14 06:02:41;;;;;;;0.88;0.60;;;22.00;57.60;;;;;;5077655;28;20035;-34
2022/05/14 06:05:08;;;;;;;0.80;0.50;;;22.00;57.60;;;;;;5077753;28;20074;-34
2022/05/14 06:07:34;;;;;;;0.75;0.60;;;22.00;57.60;;;;;;5081977;28;20017;-34
2022/05/14 06:10:01;;;;;;;0.60;0.50;;;22.00;57.60;;;;;;5083195;28;20070;-34
2022/05/14 06:12:27;;;;;;;0.60;0.57;;;22.00;57.60;;;;;;5071207;28;20029;-34
2022/05/14 06:14:53;;;;;;;1.02;0.60;;;22.00;57.60;;;;;;5079322;28;20032;-34
2022/05/14 06:17:19;;;;;;;0.93;0.50;;;22.00;57.60;;;;;;5076022;28;20080;-34
2022/05/14 06:19:45;;;;;;;0.63;0.50;;;22.00;57.60;;;;;;5079100;28;20093;-34
2022/05/14 06:22:12;;;;;;;0.50;0.50;;;22.00;57.60;;;;;;5081068;28;20073;-34
2022/05/14 06:24:38;;;;;;;0.80;0.65;;;22.00;57.60;;;;;;5077452;28;20025;-34
2022/05/14 06:27:24;;;;;;;2.13;0.57;;;22.00;57.70;;;;;;5077483;28;20078;-34
2022/05/14 06:29:50;;;;;;;0.70;0.70;;;22.00;57.70;;;;;;5057819;28;20041;-34
2022/05/14 06:32:16;;;;;;;0.52;0.40;;;22.00;57.70;;;;;;5055744;28;20049;-34
2022/05/14 06:34:42;;;;;;;1.90;0.60;;;22.00;57.70;;;;;;5059024;28;20033;-34
2022/05/14 06:37:08;;;;;;;0.88;0.65;;;22.00;57.70;;;;;;5058305;28;20084;-34
2022/05/14 06:39:34;;;;;;;1.08;0.60;;;22.00;57.70;;;;;;5057531;28;20024;-34
2022/05/14 06:42:02;;;;;;;1.20;0.77;;;22.00;57.70;;;;;;5052821;28;20060;-34
2022/05/14 06:44:28;;;;;;;0.93;0.50;;;21.90;57.60;;;;;;5056433;28;20036;-34
2022/05/14 06:46:54;;;;;;;1.23;0.70;;;21.90;57.70;;;;;;5062195;28;20028;-34
2022/05/14 06:49:20;;;;;;;0.65;0.40;;;21.90;57.60;;;;;;5058195;28;20139;-34
2022/05/14 06:51:46;;;;;;;1.05;0.60;;;21.90;57.60;;;;;;5060659;28;20025;-34
2022/05/14 06:54:13;;;;;;;0.98;0.60;;;21.90;57.60;;;;;;5057901;28;20040;-34
2022/05/14 06:56:42;;;;;;;0.85;0.60;;;21.90;57.60;;;;;;5062127;28;20029;-34
2022/05/14 06:59:09;;;;;;;0.80;0.60;;;21.90;57.60;;;;;;5075829;28;20134;-36
2022/05/14 07:01:36;;;;;;;0.93;0.68;;;21.90;57.60;;;;;;5059828;28;20048;-34
2022/05/14 07:06:48;;;;;;;1.77;0.50;;;21.90;57.60;;;;;;5064530;28;20123;-34
2022/05/14 07:09:18;;;;;;;1.08;0.60;;;21.90;57.70;;;;;;5084162;28;20081;-33
2022/05/14 07:11:46;;;;;;;2.58;0.77;;;21.90;57.80;;;;;;5083000;28;20047;-35
2022/05/14 07:14:13;;;;;;;0.70;0.63;;;21.90;57.70;;;;;;5081482;28;20030;-34
2022/05/14 07:16:39;;;;;;;0.88;0.60;;;21.90;57.70;;;;;;5073250;28;20032;-34
2022/05/14 07:19:08;;;;;;;0.60;0.57;;;21.90;57.80;;;;;;5083003;28;20041;-34
2022/05/14 07:21:36;;;;;;;1.65;0.50;;;21.80;57.70;;;;;;5083958;28;20040;-34
2022/05/14 07:24:05;;;;;;;1.25;0.60;;;21.80;57.70;;;;;;5077293;28;20099;-34
2022/05/14 07:26:34;;;;;;;0.98;0.60;;;21.80;57.70;;;;;;5077418;28;20056;-34
2022/05/14 07:29:01;;;;;;;0.70;0.60;;;21.80;57.70;;;;;;5077100;28;20031;-34
2022/05/14 07:31:27;;;;;;;0.75;0.65;;;21.80;57.80;;;;;;5084855;28;20028;-34
2022/05/14 07:33:53;;;;;;;0.65;0.50;;;21.80;57.80;;;;;;5079697;28;20035;-34
2022/05/14 07:36:20;;;;;;;1.88;0.60;;;21.80;57.80;;;;;;5079820;28;20123;-34
2022/05/14 07:38:46;;;;;;;0.40;0.40;;;21.80;57.80;;;;;;5085420;28;20546;-33
2022/05/14 07:41:13;;;;;;;1.40;0.70;;;21.80;57.80;;;;;;5083511;28;20078;-34
2022/05/14 07:43:39;;;;;;;1.05;0.60;;;21.80;57.80;;;;;;5081860;28;20024;-34
2022/05/14 07:46:08;;;;;;;0.73;0.60;;;21.80;57.90;;;;;;5086611;28;20032;-33
2022/05/14 07:48:36;;;;;;;0.88;0.55;;;21.80;57.80;;;;;;5075598;28;20333;-34
2022/05/14 07:51:03;;;;;;;0.77;0.55;;;21.80;57.90;;;;;;5074247;28;20106;-34
2022/05/14 07:53:30;;;;;;;0.68;0.50;;;21.80;57.80;;;;;;5082063;28;20031;-34
2022/05/14 07:56:00;;;;;;;0.60;0.50;;;21.80;57.90;;;;;;5079801;28;20116;-34
2022/05/14 07:58:27;;;;;;;0.98;0.70;;;21.70;57.80;;;;;;5084290;28;20040;-34
2022/05/14 08:00:54;;;;;;;0.45;0.45;;;21.70;57.80;;;;;;5081427;28;20059;-33
2022/05/14 08:03:23;;;;;;;0.70;0.60;;;21.70;57.80;;;;;;5082854;28;20036;-34
2022/05/14 08:05:50;;;;;;;0.68;0.57;;;21.70;57.80;;;;;;5078176;28;20032;-33
2022/05/14 08:08:17;;;;;;;0.88;0.45;;;21.70;57.70;;;;;;5083609;28;20016;-33
2022/05/14 08:10:43;;;;;;;0.93;0.60;;;21.70;57.70;;;;;;5080003;28;20033;-33
2022/05/14 08:13:15;;;;;;;0.50;0.50;;;21.70;57.70;;;;;;5080842;28;20117;-33
2022/05/14 08:15:41;;;;;;;0.63;0.60;;;21.70;57.70;;;;;;5087093;28;20039;-33
2022/05/14 08:18:08;;;;;;;0.73;0.57;;;21.70;57.70;;;;;;5078040;28;20025;-34
2022/05/14 08:20:34;;;;;;;1.38;0.60;;;21.70;57.70;;;;;;5082104;28;20033;-34
2022/05/14 08:25:45;;;;;;;0.65;0.50;;;21.70;57.60;;;;;;5078998;28;20039;-33
2022/05/14 08:28:11;;;;;;;0.80;0.50;;;21.70;57.70;;;;;;5076916;28;20033;-33
2022/05/14 08:30:37;;;;;;;0.47;0.47;;;21.70;57.70;;;;;;5074814;28;20050;-33
2022/05/14 08:33:05;;;;;;;0.80;0.50;;;21.60;57.60;;;;;;5080528;28;20157;-42
2022/05/14 08:35:31;;;;;;;0.68;0.68;;;21.70;57.70;;;;;;5083147;28;20032;-43
2022/05/14 08:37:57;;;;;;;0.57;0.50;;;21.60;57.70;;;;;;5078044;28;20078;-42
2022/05/14 08:40:28;;;;;;;1.73;0.65;;;21.60;57.70;;;;;;5083585;28;20044;-42
2022/05/14 08:43:06;;;;;;;0.80;0.47;;;21.60;57.60;;;;;;5081539;28;20029;-42
2022/05/14 08:45:36;;;;;;;;;;;21.60;57.70;;;;;;5082273;28;20037;-42
2022/05/14 08:48:14;;;;;;;1.85;0.57;;;21.60;57.70;;;;;;5068259;28;19915;-42
2022/05/14 08:50:41;;;;;;;0.82;0.63;;;21.60;57.80;;;;;;5078903;28;20121;-43
2022/05/14 08:53:10;;;;;;;0.45;0.38;;;21.60;57.80;;;;;;5070795;28;20037;-41
2022/05/14 08:56:13;;;;;;;0.47;0.47;;;21.60;57.70;;;;;;5081496;28;20050;-42
2022/05/14 08:59:17;;;;;;;0.85;0.57;;;21.60;57.80;;;;;;5078888;28;20020;-42
2022/05/14 09:01:44;;;;;;;1.23;0.70;;;21.60;57.80;;;;;;5078961;28;20485;-41
2022/05/14 09:04:12;;;;;;;0.80;0.70;;;21.60;57.90;;;;;;5079017;28;20032;-42
2022/05/14 09:06:39;;;;;;;0.50;0.50;;;21.60;57.90;;;;;;5080363;28;20123;-42
2022/05/14 09:09:06;;;;;;;0.70;0.40;;;21.60;57.90;;;;;;5081013;28;20024;-42
2022/05/14 09:11:39;;;;;;;;;;;21.50;57.90;;;;;;5082939;28;20077;-43
2022/05/14 09:14:21;;;;;;;0.60;0.43;;;21.50;57.80;;;;;;5080867;28;20650;-42
2022/05/14 09:16:48;;;;;;;0.95;0.70;;;21.50;57.90;;;;;;5081574;28;20020;-42
2022/05/14 09:19:14;;;;;;;;;;;21.50;57.90;;;;;;5084992;28;20074;-42
2022/05/14 09:21:51;;;;;;;0.65;0.50;;;21.50;57.90;;;;;;5081682;28;19926;-43
2022/05/14 09:24:28;;;;;;;0.68;0.52;;;21.50;57.90;;;;;;5078132;28;20054;-43
2022/05/14 09:26:55;;;;;;;0.80;0.55;;;21.50;57.90;;;;;;5082584;28;20029;-42
2022/05/14 09:29:28;;;;;;;0.50;0.50;;;21.50;57.90;;;;;;5079590;28;20033;-43
2022/05/14 09:32:06;;;;;;;1.10;0.50;;;21.50;57.90;;;;;;5070782;28;20088;-42
2022/05/14 09:34:33;;;;;;;0.75;0.50;;;21.50;57.90;;;;;;5074373;28;20029;-43
2022/05/14 09:37:01;;;;;;;0.60;0.50;;;21.50;58.00;;;;;;5076940;28;20025;-42
2022/05/14 09:39:28;;;;;;;0.73;0.70;;;21.50;58.00;;;;;;5077102;28;20028;-42
2022/05/14 09:42:01;;;;;;;0.60;0.60;;;21.50;58.00;;;;;;5074699;28;20087;-42
2022/05/14 09:44:47;;;;;;;0.68;0.50;;;21.40;58.00;;;;;;5074427;28;20092;-42
2022/05/14 09:47:15;;;;;;;0.82;0.50;;;21.40;58.00;;;;;;5077657;28;20055;-42
2022/05/14 09:49:44;;;;;;;1.60;0.50;;;21.50;58.10;;;;;;5078060;28;20028;-42
2022/05/14 09:52:13;;;;;;;0.68;0.50;;;21.40;58.10;;;;;;5057855;28;20089;-43
2022/05/14 09:54:50;;;;;;;1.50;0.50;;;21.40;58.10;;;;;;5076998;28;20111;-42
2022/05/14 09:57:20;;;;;;;0.65;0.60;;;21.40;58.10;;;;;;5079523;28;20481;-42
2022/05/14 10:00:12;;;;;;;0.73;0.43;;;21.40;58.20;;;;;;5075324;28;20029;-42
2022/05/14 10:03:06;;;;;;;0.65;0.50;;;21.40;58.20;;;;;;5080986;28;20055;-41
2022/05/14 10:06:07;;;;;;;0.50;0.50;;;21.40;58.20;;;;;;5081649;28;20480;-42
2022/05/14 10:09:07;;;;;;;0.60;0.60;;;21.40;58.20;;;;;;5077461;28;20084;-42
2022/05/14 10:11:40;;;;;;;0.80;0.65;;;21.40;58.30;;;;;;5077350;28;20035;-41
2022/05/14 10:14:27;;;;;;;1.90;0.60;;;21.40;58.30;;;;;;5077355;28;20031;-43
2022/05/14 10:16:58;;;;;;;0.75;0.60;;;21.40;58.30;;;;;;5079137;28;20036;-42
2022/05/14 10:19:35;;;;;;;0.52;0.50;;;21.40;58.30;;;;;;5076157;28;20043;-43
2022/05/14 10:22:19;;;;;;;0.40;0.40;;;21.40;58.20;;;;;;5080275;28;20067;-43
2022/05/14 10:28:17;;;;;;;3.70;0.40;;;21.30;58.10;;;;;;5069147;28;20031;-42
2022/05/14 10:30:55;;;;;;;0.40;0.40;;;21.30;58.20;;;;;;5059018;28;20021;-42
2022/05/14 10:33:25;;;;;;;0.40;0.40;;;21.30;58.30;;;;;;5083681;28;20044;-42
2022/05/14 10:36:09;;;;;;;0.50;0.50;;;21.30;58.30;;;;;;5082331;28;20033;-42
2022/05/14 10:38:53;;;;;;;0.73;0.50;;;21.30;58.20;;;;;;5087326;28;20025;-42
2022/05/14 10:41:49;;;;;;;0.40;0.40;;;21.30;58.30;;;;;;5081220;28;20082;-42
2022/05/14 10:44:30;;;;;;;0.70;0.50;;;21.30;58.30;;;;;;5080990;28;20036;-43
2022/05/14 10:46:58;;;;;;;0.55;0.50;;;21.30;58.30;;;;;;5084294;28;20698;-42
2022/05/14 10:49:37;;;;;;;0.77;0.43;;;21.30;58.30;;;;;;5086874;28;20032;-42
2022/05/14 10:52:04;;;;;;;0.50;0.50;;;21.30;58.30;;;;;;5085368;28;20024;-42
2022/05/14 10:54:32;;;;;;;0.65;0.50;;;21.30;58.30;;;;;;5069206;28;20039;-43
2022/05/14 10:57:19;;;;;;;0.45;0.40;;;21.30;58.30;;;;;;5083998;28;20473;-42
2022/05/14 10:59:56;;;;;;;0.50;0.50;;;21.30;58.30;;;;;;5068198;28;20058;-41
2022/05/14 11:02:25;;;;;;;0.40;0.40;;;21.30;58.40;;;;;;5100411;28;20103;-42
2022/05/14 11:04:52;;;;;;;0.50;0.50;;;21.30;58.30;;;;;;5080213;28;20025;-42
2022/05/14 11:07:33;;;;;;;0.80;0.50;;;21.20;58.30;;;;;;5081207;28;20111;-43
2022/05/14 11:10:09;;;;;;;1.52;0.50;;;21.20;58.30;;;;;;5074346;28;20035;-42
2022/05/14 11:12:35;;;;;;;0.55;0.52;;;21.20;58.30;;;;;;5083275;28;20036;-45
2022/05/14 11:15:04;;;;;;;0.40;0.40;;;21.20;58.40;;;;;;5080926;28;20059;-42
2022/05/14 11:17:32;;;;;;;0.35;0.35;;;21.20;58.40;;;;;;5102450;28;20066;-41
2022/05/14 11:20:04;;;;;;;0.52;0.50;;;21.20;58.40;;;;;;5081160;28;20041;-41
2022/05/14 11:22:33;;;;;;;0.77;0.50;;;21.20;58.50;;;;;;5084423;28;20033;-42
2022/05/14 11:25:22;;;;;;;1.20;0.52;;;21.20;58.50;;;;;;5082511;28;20035;-44
2022/05/14 11:27:58;;;;;;;0.60;0.50;;;21.20;58.50;;;;;;5082950;28;20032;-42
2022/05/14 11:30:50;;;;;;;0.50;0.47;;;21.20;58.60;;;;;;5081887;28;20036;-42
2022/05/14 11:33:37;;;;;;;0.85;0.50;;;21.20;58.60;;;;;;5081802;28;20048;-42
2022/05/14 11:36:26;;;;;;;0.45;0.40;;;21.20;58.60;;;;;;5079145;28;20033;-41
2022/05/14 11:39:07;;;;;;;0.68;0.50;;;21.20;58.60;;;;;;5078114;28;20039;-42
2022/05/14 11:41:37;;;;;;;0.60;0.50;;;21.20;58.60;;;;;;5082458;28;20047;-42
2022/05/14 11:44:06;;;;;;;1.33;0.60;;;21.20;58.60;;;;;;5082716;28;20021;-42
2022/05/14 11:46:44;;;;;;;0.52;0.52;;;21.20;58.60;;;;;;5082460;28;20032;-43
2022/05/14 11:49:12;;;;;;;;;;;21.20;58.60;;;;;;5077550;28;20020;-42
2022/05/14 11:52:13;;;;;;;0.30;0.30;;;21.20;58.50;;;;;;5075661;28;19912;-42
2022/05/14 11:54:57;;;;;;;0.50;0.50;;;21.20;58.60;;;;;;5080202;28;20043;-44
2022/05/14 11:57:26;;;;;;;0.70;0.50;;;21.10;58.60;;;;;;5077592;28;20029;-41
2022/05/14 12:00:00;;;;;;;0.40;0.40;;;21.10;58.60;;;;;;5084384;28;20070;-42
2022/05/14 12:02:48;;;;;;;0.73;0.57;;;21.10;58.60;;;;;;5076185;28;20102;-42
2022/05/14 12:05:34;;;;;;;;;;;21.10;58.60;;;;;;5077463;28;20131;-42
2022/05/14 12:08:09;;;;;;;0.50;0.50;;;21.10;58.60;;;;;;5100204;28;19909;-43
2022/05/14 12:10:52;;;;;;;0.40;0.40;;;21.10;58.70;;;;;;5082023;28;20051;-42
2022/05/14 12:13:30;;;;;;;0.45;0.45;;;21.10;58.80;;;;;;5076846;28;20019;-42
2022/05/14 12:15:57;;;;;;;0.70;0.60;;;21.10;58.80;;;;;;5084180;28;20023;-42
2022/05/14 12:18:24;;;;;;;0.50;0.50;;;21.10;58.90;;;;;;5100670;28;20059;-42
2022/05/14 12:20:58;;;;;;;0.73;0.52;;;21.10;58.90;;;;;;5078703;28;20114;-42
2022/05/14 12:23:33;;;;;;;0.93;0.70;;;21.10;58.90;;;;;;5076218;28;20032;-43
2022/05/14 12:25:59;;;;;;;0.40;0.40;;;21.10;58.90;;;;;;5100532;28;20040;-42
2022/05/14 12:28:28;;;;;;;0.80;0.60;;;21.10;59.00;;;;;;5085811;28;20052;-42
2022/05/14 12:33:58;;;;;;;2.25;0.50;;;21.10;59.00;;;;;;5063532;28;20087;-42
2022/05/14 12:36:25;;;;;;;1.17;0.55;;;21.10;59.00;;;;;;5076486;28;20028;-42
2022/05/14 12:38:51;;;;;;;0.88;0.70;;;21.10;59.10;;;;;;5063533;28;20024;-42
2022/05/14 12:41:27;;;;;;;0.77;0.70;;;21.10;59.10;;;;;;5065643;28;20069;-42
2022/05/14 12:43:53;;;;;;;0.60;0.60;;;21.10;59.10;;;;;;5095649;28;20017;-42
2022/05/14 12:46:22;;;;;;;0.70;0.60;;;21.10;59.20;;;;;;5079423;28;20020;-42
2022/05/14 12:48:50;;;;;;;0.50;0.50;;;21.10;59.20;;;;;;5088646;28;20036;-43
2022/05/14 12:51:21;;;;;;;0.75;0.60;;;21.10;59.20;;;;;;5081397;28;20130;-42
2022/05/14 12:53:47;;;;;;;1.33;0.70;;;21.10;59.30;;;;;;5073390;28;20035;-42
2022/05/14 12:56:14;;;;;;;1.00;0.60;;;21.10;59.30;;;;;;5074329;28;20028;-43
2022/05/14 12:58:41;;;;;;;3.00;0.80;;;21.10;59.40;;;;;;5085579;28;20020;-42
2022/05/14 13:01:07;;;;;;;1.45;0.60;;;21.10;59.40;;;;;;5081662;28;20043;-43
2022/05/14 13:03:51;;;;;;;0.63;0.60;;;21.10;59.50;;;;;;5077556;28;20592;-44
2022/05/14 13:06:26;;;;;;;1.13;0.63;;;21.10;59.60;;;;;;5098857;28;20034;-42
2022/05/14 13:08:54;;;;;;;0.82;0.63;;;21.10;59.70;;;;;;5077901;28;20092;-43
2022/05/14 13:11:22;;;;;;;0.60;0.60;;;21.10;59.80;;;;;;5066355;28;20025;-42
2022/05/14 13:13:51;;;;;;;1.23;0.73;;;21.10;59.90;;;;;;5077134;28;20552;-35
2022/05/14 13:16:25;;;;;;;1.77;0.80;;;21.10;60.10;;;;;;5062692;28;20028;-36
2022/05/14 13:18:57;;;;;;;1.02;0.70;;;21.10;60.00;;;;;;5064394;28;20057;-36
2022/05/14 13:21:29;;;;;;;1.02;0.80;;;21.10;60.00;;;;;;5087114;28;20051;-36
2022/05/14 13:23:58;;;;;;;0.98;0.70;;;21.10;60.00;;;;;;5081276;28;20017;-36